| time (UTC) | temp C | wind direction | speed KPH | gust KPH | rain 1hr cm | rain 24hr cm | rain mn cm | humidity % | barometer mb |
| 20260906225201 | 35 | 219 | 12.9 | 16.1 | 0.00 | 0.00 | 0.00 | 32 | 1010.7 |
| 20260906224655 | 35 | 172 | 6.4 | 6.4 | 0.00 | 0.00 | 0.00 | 32 | 1010.7 |
| 20260906224152 | 35 | 170 | 11.3 | 12.9 | 0.00 | 0.00 | 0.00 | 32 | 1010.7 |
| 20260906223649 | 36 | 118 | 9.7 | 11.3 | 0.00 | 0.00 | 0.00 | 32 | 1010.7 |
| 20260906223148 | 35 | 156 | 3.2 | 4.8 | 0.00 | 0.00 | 0.00 | 32 | 1010.9 |
| 20260906222646 | 35 | 133 | 3.2 | 1.6 | 0.00 | 0.00 | 0.00 | 33 | 1010.9 |
| 20260906222145 | 35 | 212 | 6.4 | 6.4 | 0.00 | 0.00 | 0.00 | 34 | 1011.0 |
| 20260906221643 | 35 | 176 | 16.1 | 20.9 | 0.00 | 0.00 | 0.00 | 33 | 1011.0 |
| 20260906221138 | 35 | 115 | 4.8 | 6.4 | 0.00 | 0.00 | 0.00 | 33 | 1010.9 |
| 20260906220634 | 33 | 98 | 0.0 | 0.0 | 0.00 | 0.00 | 0.00 | 36 | 1011.0 |
| 20260906220129 | 33 | 123 | 1.6 | 1.6 | 0.00 | 0.00 | 0.00 | 39 | 1011.1 |
| 20260906215628 | 32 | 151 | 3.2 | 4.8 | 0.00 | 0.00 | 0.00 | 39 | 1011.2 |
| 20260906215126 | 32 | 108 | 3.2 | 4.8 | 0.00 | 0.00 | 0.00 | 41 | 1011.0 |
| 20260906214626 | 32 | 124 | 1.6 | 1.6 | 0.00 | 0.00 | 0.00 | 41 | 1010.9 |
| 20260906214120 | 32 | 72 | 0.0 | 0.0 | 0.00 | 0.00 | 0.00 | 44 | 1011.0 |
| 20260906213619 | 31 | 83 | 6.4 | 6.4 | 0.00 | 0.00 | 0.00 | 44 | 1011.2 |
| 20260906213114 | 30 | 153 | 4.8 | 6.4 | 0.00 | 0.00 | 0.00 | 49 | 1011.2 |
| 20260906212612 | 31 | 75 | 4.8 | 6.4 | 0.00 | 0.00 | 0.00 | 51 | 1011.3 |
| 20260906212108 | 33 | 90 | 9.7 | 11.3 | 0.00 | 0.00 | 0.00 | 44 | 1011.5 |
| 20260906211607 | 35 | 170 | 9.7 | 22.5 | 0.00 | 0.00 | 0.00 | 35 | 1011.3 |
| 20260906211102 | 35 | 154 | 19.3 | 22.5 | 0.00 | 0.00 | 0.00 | 34 | 1011.4 |
| 20260906210557 | 36 | 165 | 4.8 | 6.4 | 0.00 | 0.00 | 0.00 | 33 | 1011.4 |
| 20260906210052 | 36 | 126 | 3.2 | 4.8 | 0.00 | 0.00 | 0.00 | 33 | 1011.4 |
| 20260906205548 | 35 | 161 | 8.0 | 20.9 | 0.00 | 0.00 | 0.00 | 33 | 1011.8 |
| 20260906205044 | 35 | 225 | 4.8 | 6.4 | 0.00 | 0.00 | 0.00 | 35 | 1011.7 |
| 20260906204543 | 35 | 92 | 6.4 | 9.7 | 0.00 | 0.00 | 0.00 | 35 | 1011.8 |
| 20260906204038 | 35 | 171 | 9.7 | 11.3 | 0.00 | 0.00 | 0.00 | 35 | 1011.9 |
| 20260906203537 | 35 | 145 | 6.4 | 11.3 | 0.00 | 0.00 | 0.00 | 35 | 1011.9 |
| 20260906203033 | 35 | 177 | 14.5 | 17.7 | 0.00 | 0.00 | 0.00 | 34 | 1011.9 |
| 20260906202529 | 36 | 145 | 11.3 | 11.3 | 0.00 | 0.00 | 0.00 | 33 | 1011.8 |
| 20260906202024 | 36 | 118 | 11.3 | 20.9 | 0.00 | 0.00 | 0.00 | 33 | 1011.9 |
| 20260906201519 | 36 | 149 | 12.9 | 12.9 | 0.00 | 0.00 | 0.00 | 33 | 1011.9 |
| 20260906201018 | 35 | 227 | 9.7 | 11.3 | 0.00 | 0.00 | 0.00 | 34 | 1012.1 |
| 20260906200514 | 35 | 211 | 14.5 | 17.7 | 0.00 | 0.00 | 0.00 | 35 | 1012.0 |
| 20260906200010 | 35 | 82 | 3.2 | 1.6 | 0.00 | 0.00 | 0.00 | 34 | 1012.0 |
| 20260906195505 | 36 | 93 | 9.7 | 11.3 | 0.00 | 0.00 | 0.00 | 33 | 1012.1 |
| 20260906195001 | 35 | 126 | 9.7 | 11.3 | 0.00 | 0.00 | 0.00 | 33 | 1012.1 |
| 20260906194457 | 36 | 102 | 4.8 | 4.8 | 0.00 | 0.00 | 0.00 | 33 | 1012.1 |
| 20260906193952 | 35 | 81 | 8.0 | 11.3 | 0.00 | 0.00 | 0.00 | 34 | 1012.2 |
| 20260906193447 | 35 | 162 | 11.3 | 12.9 | 0.00 | 0.00 | 0.00 | 36 | 1012.2 |
| 20260906192943 | 35 | 114 | 6.4 | 6.4 | 0.00 | 0.00 | 0.00 | 35 | 1012.3 |
| 20260906192443 | 36 | 163 | 8.0 | 11.3 | 0.00 | 0.00 | 0.00 | 33 | 1012.5 |
| 20260906191942 | 36 | 180 | 6.4 | 9.7 | 0.00 | 0.00 | 0.00 | 32 | 1012.3 |
| 20260906191437 | 37 | 162 | 14.5 | 16.1 | 0.00 | 0.00 | 0.00 | 30 | 1012.7 |
| 20260906190937 | 36 | 212 | 4.8 | 4.8 | 0.00 | 0.00 | 0.00 | 31 | 1012.6 |
| 20260906190435 | 36 | 172 | 4.8 | 9.7 | 0.00 | 0.00 | 0.00 | 32 | 1012.7 |
| 20260906185931 | 36 | 169 | 9.7 | 9.7 | 0.00 | 0.00 | 0.00 | 32 | 1012.7 |
| 20260906185430 | 36 | 178 | 4.8 | 6.4 | 0.00 | 0.00 | 0.00 | 32 | 1012.6 |
| 20260906184929 | 35 | 185 | 11.3 | 16.1 | 0.00 | 0.00 | 0.00 | 34 | 1012.8 |
| 20260906184424 | 35 | 105 | 1.6 | 1.6 | 0.00 | 0.00 | 0.00 | 34 | 1012.8 |
| 20260906183919 | 35 | 162 | 9.7 | 16.1 | 0.00 | 0.00 | 0.00 | 34 | 1013.0 |
| 20260906183416 | 35 | 346 | 3.2 | 4.8 | 0.00 | 0.00 | 0.00 | 35 | 1013.2 |
| 20260906182910 | 33 | 169 | 16.1 | 20.9 | 0.00 | 0.00 | 0.00 | 38 | 1013.1 |
| 20260906182406 | 33 | 177 | 6.4 | 9.7 | 0.00 | 0.00 | 0.00 | 37 | 1013.4 |
| 20260906181901 | 34 | 157 | 3.2 | 4.8 | 0.00 | 0.00 | 0.00 | 36 | 1013.3 |
| 20260906181357 | 35 | 114 | 6.4 | 9.7 | 0.00 | 0.00 | 0.00 | 34 | 1013.3 |
| 20260906180853 | 35 | 92 | 6.4 | 6.4 | 0.00 | 0.00 | 0.00 | 34 | 1013.1 |
| 20260906180348 | 33 | 165 | 12.9 | 16.1 | 0.00 | 0.00 | 0.00 | 36 | 1013.6 |
| 20260906175844 | 33 | 83 | 6.4 | 6.4 | 0.00 | 0.00 | 0.00 | 36 | 1013.6 |
| 20260906175340 | 32 | 65 | 6.4 | 9.7 | 0.00 | 0.00 | 0.00 | 39 | 1013.8 |
| 20260906174839 | 32 | 145 | 4.8 | 6.4 | 0.00 | 0.00 | 0.00 | 39 | 1013.9 |
| 20260906174339 | 33 | 90 | 4.8 | 6.4 | 0.00 | 0.00 | 0.00 | 39 | 1013.9 |
| 20260906173834 | 33 | 175 | 6.4 | 6.4 | 0.00 | 0.00 | 0.00 | 38 | 1014.1 |
| 20260906173330 | 33 | 162 | 8.0 | 11.3 | 0.00 | 0.00 | 0.00 | 38 | 1014.1 |
| 20260906172828 | 34 | 155 | 11.3 | 12.9 | 0.00 | 0.00 | 0.00 | 36 | 1014.0 |
| 20260906172325 | 34 | 164 | 8.0 | 12.9 | 0.00 | 0.00 | 0.00 | 36 | 1014.0 |
| 20260906171819 | 33 | 78 | 8.0 | 9.7 | 0.00 | 0.00 | 0.00 | 37 | 1014.3 |
| 20260906171314 | 32 | 97 | 0.0 | 1.6 | 0.00 | 0.00 | 0.00 | 39 | 1014.3 |
| 20260906170810 | 32 | 58 | 0.0 | 0.0 | 0.00 | 0.00 | 0.00 | 41 | 1014.4 |
| 20260906170306 | 32 | 217 | 9.7 | 9.7 | 0.00 | 0.00 | 0.00 | 42 | 1014.2 |
| 20260906165802 | 31 | 266 | 1.6 | 1.6 | 0.00 | 0.00 | 0.00 | 42 | 1014.5 |
| 20260906165301 | 31 | 272 | 4.8 | 4.8 | 0.00 | 0.00 | 0.00 | 44 | 1014.5 |
| 20260906164801 | 31 | 266 | 8.0 | 11.3 | 0.00 | 0.00 | 0.00 | 44 | 1014.5 |
| 20260906164256 | 31 | 244 | 4.8 | 6.4 | 0.00 | 0.00 | 0.00 | 45 | 1014.5 |
| 20260906163752 | 31 | 61 | 3.2 | 4.8 | 0.00 | 0.00 | 0.00 | 45 | 1014.5 |
| 20260906163249 | 32 | 18 | 6.4 | 6.4 | 0.00 | 0.00 | 0.00 | 43 | 1014.4 |
| 20260906162746 | 32 | 85 | 0.0 | 0.0 | 0.00 | 0.00 | 0.00 | 44 | 1014.5 |
| 20260906162240 | 32 | 305 | 3.2 | 4.8 | 0.00 | 0.00 | 0.00 | 45 | 1014.6 |
| 20260906161740 | 32 | 230 | 3.2 | 4.8 | 0.00 | 0.00 | 0.00 | 44 | 1014.6 |
| 20260906161239 | 32 | 107 | 0.0 | 1.6 | 0.00 | 0.00 | 0.00 | 45 | 1014.7 |
| 20260906160738 | 32 | 56 | 0.0 | 1.6 | 0.00 | 0.00 | 0.00 | 45 | 1014.7 |
| 20260906160238 | 32 | 62 | 0.0 | 0.0 | 0.00 | 0.00 | 0.00 | 46 | 1014.7 |
| 20260906155735 | 32 | 16 | 8.0 | 9.7 | 0.00 | 0.00 | 0.00 | 46 | 1014.7 |
| 20260906155230 | 31 | 300 | 0.0 | 0.0 | 0.00 | 0.00 | 0.00 | 46 | 1014.6 |
| 20260906154726 | 31 | 237 | 8.0 | 9.7 | 0.00 | 0.00 | 0.00 | 47 | 1014.6 |
| 20260906154221 | 32 | 300 | 6.4 | 9.7 | 0.00 | 0.00 | 0.00 | 46 | 1014.5 |
| 20260906153719 | 32 | 307 | 6.4 | 6.4 | 0.00 | 0.00 | 0.00 | 45 | 1014.4 |
| 20260906153214 | 32 | 314 | 6.4 | 6.4 | 0.00 | 0.00 | 0.00 | 44 | 1014.6 |
| 20260906152708 | 32 | 189 | 6.4 | 9.7 | 0.00 | 0.00 | 0.00 | 44 | 1014.4 |
| 20260906152203 | 31 | 236 | 3.2 | 1.6 | 0.00 | 0.00 | 0.00 | 47 | 1014.4 |
| 20260906151658 | 31 | 293 | 9.7 | 11.3 | 0.00 | 0.00 | 0.00 | 47 | 1014.4 |
| 20260906151154 | 31 | 211 | 1.6 | 1.6 | 0.00 | 0.00 | 0.00 | 49 | 1014.2 |
| 20260906150649 | 31 | 273 | 3.2 | 4.8 | 0.00 | 0.00 | 0.00 | 50 | 1014.3 |
| 20260906150144 | 30 | 251 | 6.4 | 6.4 | 0.00 | 0.00 | 0.00 | 52 | 1014.3 |
| 20260906145642 | 30 | 286 | 3.2 | 4.8 | 0.00 | 0.00 | 0.00 | 53 | 1014.2 |
| 20260906145137 | 30 | 356 | 8.0 | 9.7 | 0.00 | 0.00 | 0.00 | 53 | 1014.0 |
| 20260906144632 | 30 | 331 | 6.4 | 9.7 | 0.00 | 0.00 | 0.00 | 53 | 1014.2 |
| 20260906144127 | 30 | 12 | 9.7 | 9.7 | 0.00 | 0.00 | 0.00 | 53 | 1014.0 |
| 20260906143626 | 30 | 313 | 6.4 | 6.4 | 0.00 | 0.00 | 0.00 | 53 | 1014.1 |
| 20260906143124 | 30 | 242 | 4.8 | 4.8 | 0.00 | 0.00 | 0.00 | 52 | 1014.1 |
| 20260906142623 | 29 | 14 | 4.8 | 6.4 | 0.00 | 0.00 | 0.00 | 54 | 1014.1 |
| 20260906142118 | 29 | 331 | 6.4 | 6.4 | 0.00 | 0.00 | 0.00 | 54 | 1014.3 |
| 20260906141617 | 29 | 260 | 11.3 | 12.9 | 0.00 | 0.00 | 0.00 | 56 | 1014.2 |
| 20260906141113 | 29 | 294 | 8.0 | 11.3 | 0.00 | 0.00 | 0.00 | 56 | 1014.1 |
| 20260906140611 | 28 | 323 | 3.2 | 4.8 | 0.00 | 0.00 | 0.00 | 56 | 1014.2 |
| 20260906140107 | 29 | 262 | 6.4 | 6.4 | 0.00 | 0.00 | 0.00 | 56 | 1014.0 |
| 20260906135603 | 29 | 335 | 0.0 | 0.0 | 0.00 | 0.00 | 0.00 | 53 | 1014.1 |
| 20260906135059 | 29 | 147 | 0.0 | 0.0 | 0.00 | 0.00 | 0.00 | 52 | 1014.0 |
| 20260906134555 | 29 | 140 | 0.0 | 0.0 | 0.00 | 0.00 | 0.00 | 52 | 1014.0 |
| 20260906134054 | 28 | 89 | 0.0 | 0.0 | 0.00 | 0.00 | 0.00 | 54 | 1014.1 |
| 20260906133550 | 27 | 65 | 0.0 | 0.0 | 0.00 | 0.00 | 0.00 | 57 | 1014.1 |
| 20260906133046 | 26 | 65 | 0.0 | 0.0 | 0.00 | 0.00 | 0.00 | 60 | 1014.1 |
| 20260906132546 | 25 | 64 | 0.0 | 0.0 | 0.00 | 0.00 | 0.00 | 62 | 1014.0 |
| 20260906132041 | 25 | 79 | 0.0 | 0.0 | 0.00 | 0.00 | 0.00 | 63 | 1014.1 |
| 20260906131537 | 24 | 195 | 0.0 | 0.0 | 0.00 | 0.00 | 0.00 | 65 | 1014.2 |
| 20260906131032 | 23 | 198 | 0.0 | 0.0 | 0.00 | 0.00 | 0.00 | 66 | 1014.1 |
| 20260906130531 | 23 | 198 | 0.0 | 0.0 | 0.00 | 0.00 | 0.00 | 68 | 1014.0 |
| 20260906130027 | 23 | 198 | 0.0 | 0.0 | 0.00 | 0.00 | 0.00 | 69 | 1014.0 |
| 20260906125524 | 22 | 199 | 0.0 | 0.0 | 0.00 | 0.00 | 0.00 | 70 | 1013.7 |
| 20260906125019 | 22 | 199 | 0.0 | 0.0 | 0.00 | 0.00 | 0.00 | 71 | 1013.7 |
| 20260906124514 | 22 | 200 | 0.0 | 0.0 | 0.00 | 0.00 | 0.00 | 72 | 1013.7 |
| 20260906124009 | 22 | 200 | 3.2 | 4.8 | 0.00 | 0.00 | 0.00 | 73 | 1013.8 |
| 20260906123508 | 21 | 200 | 0.0 | 0.0 | 0.00 | 0.00 | 0.00 | 73 | 1013.4 |
| 20260906123004 | 21 | 200 | 0.0 | 0.0 | 0.00 | 0.00 | 0.00 | 74 | 1013.4 |
| 20260906122458 | 21 | 200 | 0.0 | 0.0 | 0.00 | 0.00 | 0.00 | 75 | 1013.3 |
| 20260906121954 | 21 | 200 | 0.0 | 0.0 | 0.00 | 0.00 | 0.00 | 75 | 1013.1 |
| 20260906121450 | 21 | 200 | 0.0 | 0.0 | 0.00 | 0.00 | 0.00 | 74 | 1013.0 |
| 20260906120946 | 21 | 200 | 0.0 | 0.0 | 0.00 | 0.00 | 0.00 | 74 | 1013.1 |
| 20260906120441 | 22 | 200 | 0.0 | 0.0 | 0.00 | 0.00 | 0.00 | 73 | 1013.3 |
| 20260906115938 | 22 | 200 | 0.0 | 0.0 | 0.00 | 0.00 | 0.00 | 73 | 1012.9 |
| 20260906115433 | 21 | 200 | 0.0 | 0.0 | 0.00 | 0.00 | 0.00 | 74 | 1012.9 |
| 20260906114932 | 21 | 200 | 0.0 | 0.0 | 0.00 | 0.00 | 0.00 | 75 | 1012.9 |
| 20260906114427 | 21 | 200 | 0.0 | 0.0 | 0.00 | 0.00 | 0.00 | 75 | 1012.9 |
| 20260906113923 | 21 | 200 | 0.0 | 0.0 | 0.00 | 0.00 | 0.00 | 75 | 1012.9 |
| 20260906113421 | 21 | 200 | 0.0 | 0.0 | 0.00 | 0.00 | 0.00 | 74 | 1012.9 |
| 20260906112917 | 21 | 200 | 0.0 | 0.0 | 0.00 | 0.00 | 0.00 | 72 | 1013.0 |
| 20260906112413 | 22 | 200 | 0.0 | 0.0 | 0.00 | 0.00 | 0.00 | 73 | 1012.9 |
| 20260906111908 | 22 | 200 | 0.0 | 0.0 | 0.00 | 0.00 | 0.00 | 73 | 1012.9 |
| 20260906111408 | 22 | 200 | 0.0 | 0.0 | 0.00 | 0.00 | 0.00 | 73 | 1012.9 |
| 20260906110903 | 22 | 200 | 0.0 | 0.0 | 0.00 | 0.00 | 0.00 | 73 | 1012.8 |
| 20260906110358 | 22 | 200 | 0.0 | 0.0 | 0.00 | 0.00 | 0.00 | 73 | 1012.5 |
| 20260906105857 | 22 | 200 | 0.0 | 0.0 | 0.00 | 0.00 | 0.00 | 74 | 1012.8 |
| 20260906105353 | 21 | 200 | 0.0 | 0.0 | 0.00 | 0.00 | 0.00 | 74 | 1012.7 |
| 20260906104849 | 21 | 200 | 0.0 | 0.0 | 0.00 | 0.00 | 0.00 | 75 | 1012.7 |
| 20260906104347 | 21 | 200 | 0.0 | 0.0 | 0.00 | 0.00 | 0.00 | 75 | 1012.6 |
| 20260906103846 | 21 | 200 | 0.0 | 0.0 | 0.00 | 0.00 | 0.00 | 74 | 1012.5 |
| 20260906103344 | 21 | 200 | 0.0 | 0.0 | 0.00 | 0.00 | 0.00 | 72 | 1012.7 |
| 20260906102841 | 22 | 200 | 0.0 | 0.0 | 0.00 | 0.00 | 0.00 | 73 | 1012.7 |
| 20260906102339 | 21 | 200 | 0.0 | 0.0 | 0.00 | 0.00 | 0.00 | 74 | 1012.6 |
| 20260906101834 | 22 | 200 | 0.0 | 0.0 | 0.00 | 0.00 | 0.00 | 73 | 1012.7 |
| 20260906101329 | 22 | 200 | 0.0 | 0.0 | 0.00 | 0.00 | 0.00 | 72 | 1012.6 |
| 20260906100825 | 22 | 200 | 0.0 | 0.0 | 0.00 | 0.00 | 0.00 | 71 | 1012.6 |
| 20260906100324 | 22 | 200 | 0.0 | 0.0 | 0.00 | 0.00 | 0.00 | 70 | 1012.5 |
| 20260906095819 | 22 | 200 | 0.0 | 0.0 | 0.00 | 0.00 | 0.00 | 70 | 1012.5 |
| 20260906095315 | 22 | 200 | 0.0 | 0.0 | 0.00 | 0.00 | 0.00 | 71 | 1012.5 |
| 20260906094814 | 22 | 200 | 0.0 | 0.0 | 0.00 | 0.00 | 0.00 | 71 | 1012.2 |
| 20260906094309 | 22 | 200 | 0.0 | 0.0 | 0.00 | 0.00 | 0.00 | 71 | 1012.4 |
| 20260906093806 | 22 | 200 | 0.0 | 0.0 | 0.00 | 0.00 | 0.00 | 70 | 1012.3 |
| 20260906093301 | 22 | 200 | 0.0 | 0.0 | 0.00 | 0.00 | 0.00 | 70 | 1012.3 |
| 20260906092755 | 22 | 200 | 0.0 | 0.0 | 0.00 | 0.00 | 0.00 | 69 | 1012.3 |
| 20260906092250 | 23 | 200 | 0.0 | 0.0 | 0.00 | 0.00 | 0.00 | 69 | 1012.2 |
| 20260906091746 | 23 | 200 | 0.0 | 0.0 | 0.00 | 0.00 | 0.00 | 68 | 1012.2 |
| 20260906091242 | 23 | 200 | 0.0 | 0.0 | 0.00 | 0.00 | 0.00 | 67 | 1012.2 |
| 20260906090738 | 23 | 200 | 3.2 | 1.6 | 0.00 | 0.00 | 0.00 | 67 | 1012.3 |
| 20260906090237 | 23 | 198 | 0.0 | 0.0 | 0.00 | 0.00 | 0.00 | 66 | 1012.3 |
| 20260906085737 | 23 | 199 | 0.0 | 0.0 | 0.00 | 0.00 | 0.00 | 66 | 1012.2 |
| 20260906085236 | 23 | 197 | 0.0 | 0.0 | 0.00 | 0.00 | 0.00 | 67 | 1012.2 |
| 20260906084731 | 22 | 188 | 0.0 | 0.0 | 0.00 | 0.00 | 0.00 | 68 | 1012.2 |
| 20260906084231 | 22 | 172 | 0.0 | 0.0 | 0.00 | 0.00 | 0.00 | 69 | 1012.1 |
| 20260906083726 | 22 | 171 | 0.0 | 0.0 | 0.00 | 0.00 | 0.00 | 68 | 1012.1 |
| 20260906083221 | 22 | 163 | 0.0 | 0.0 | 0.00 | 0.00 | 0.00 | 69 | 1012.4 |
| 20260906082716 | 22 | 163 | 0.0 | 0.0 | 0.00 | 0.00 | 0.00 | 69 | 1012.3 |
| 20260906082211 | 22 | 163 | 0.0 | 0.0 | 0.00 | 0.00 | 0.00 | 68 | 1012.3 |
| 20260906081707 | 22 | 163 | 0.0 | 0.0 | 0.00 | 0.00 | 0.00 | 67 | 1012.2 |
| 20260906081202 | 22 | 163 | 0.0 | 0.0 | 0.00 | 0.00 | 0.00 | 67 | 1012.2 |
| 20260906080658 | 23 | 163 | 0.0 | 0.0 | 0.00 | 0.00 | 0.00 | 65 | 1012.3 |
| 20260906080149 | 23 | 163 | 0.0 | 0.0 | 0.00 | 0.00 | 0.00 | 65 | 1012.4 |
| 20260906075648 | 23 | 163 | 0.0 | 0.0 | 0.00 | 0.00 | 0.00 | 64 | 1012.3 |
| 20260906075142 | 23 | 163 | 0.0 | 0.0 | 0.00 | 0.00 | 0.00 | 64 | 1012.4 |
| 20260906074638 | 23 | 163 | 0.0 | 0.0 | 0.00 | 0.00 | 0.00 | 64 | 1012.4 |
| 20260906074136 | 23 | 163 | 0.0 | 0.0 | 0.00 | 0.00 | 0.00 | 64 | 1012.4 |
| 20260906073631 | 23 | 163 | 0.0 | 0.0 | 0.00 | 0.00 | 0.00 | 63 | 1012.5 |
| 20260906073127 | 23 | 163 | 0.0 | 0.0 | 0.00 | 0.00 | 0.00 | 62 | 1012.6 |
| 20260906072616 | 23 | 163 | 0.0 | 0.0 | 0.00 | 0.00 | 0.00 | 62 | 1012.5 |
| 20260906072112 | 23 | 162 | 0.0 | 0.0 | 0.00 | 0.00 | 0.00 | 63 | 1012.7 |
| 20260906071608 | 23 | 162 | 0.0 | 0.0 | 0.00 | 0.00 | 0.00 | 63 | 1012.9 |
| 20260906071103 | 23 | 162 | 0.0 | 0.0 | 0.00 | 0.00 | 0.00 | 62 | 1012.7 |
| 20260906070600 | 23 | 162 | 0.0 | 0.0 | 0.00 | 0.00 | 0.00 | 62 | 1013.0 |
| 20260906070054 | 23 | 162 | 0.0 | 0.0 | 0.00 | 0.00 | 0.00 | 62 | 1013.0 |
| 20260906065554 | 23 | 162 | 0.0 | 0.0 | 0.00 | 0.00 | 0.00 | 61 | 1012.7 |
| 20260906065050 | 24 | 162 | 0.0 | 0.0 | 0.00 | 0.00 | 0.00 | 60 | 1012.8 |
| 20260906064545 | 24 | 162 | 0.0 | 0.0 | 0.00 | 0.00 | 0.00 | 59 | 1012.9 |
| 20260906064035 | 25 | 162 | 0.0 | 0.0 | 0.00 | 0.00 | 0.00 | 58 | 1012.9 |
| 20260906063530 | 25 | 162 | 0.0 | 0.0 | 0.00 | 0.00 | 0.00 | 57 | 1013.0 |
| 20260906063026 | 25 | 162 | 0.0 | 0.0 | 0.00 | 0.00 | 0.00 | 56 | 1013.1 |
| 20260906062520 | 25 | 177 | 0.0 | 1.6 | 0.00 | 0.00 | 0.00 | 56 | 1012.9 |
| 20260906062015 | 25 | 168 | 3.2 | 4.8 | 0.00 | 0.00 | 0.00 | 56 | 1013.0 |
| 20260906061511 | 26 | 166 | 1.6 | 1.6 | 0.00 | 0.00 | 0.00 | 55 | 1013.0 |
| 20260906061005 | 26 | 166 | 1.6 | 1.6 | 0.00 | 0.00 | 0.00 | 54 | 1013.1 |
| 20260906060502 | 26 | 161 | 3.2 | 1.6 | 0.00 | 0.00 | 0.00 | 53 | 1013.1 |
| 20260906055958 | 26 | 161 | 1.6 | 4.8 | 0.00 | 0.00 | 0.00 | 53 | 1013.3 |
| 20260906055454 | 26 | 159 | 1.6 | 1.6 | 0.00 | 0.00 | 0.00 | 52 | 1013.2 |
| 20260906054949 | 27 | 165 | 3.2 | 4.8 | 0.00 | 0.00 | 0.00 | 51 | 1013.4 |
| 20260906054449 | 27 | 159 | 11.3 | 11.3 | 0.00 | 0.00 | 0.00 | 51 | 1013.2 |
| 20260906053944 | 27 | 154 | 6.4 | 9.7 | 0.00 | 0.00 | 0.00 | 51 | 1013.3 |
| 20260906053441 | 27 | 172 | 6.4 | 6.4 | 0.00 | 0.00 | 0.00 | 50 | 1013.3 |
| 20260906052936 | 27 | 160 | 11.3 | 12.9 | 0.00 | 0.00 | 0.00 | 50 | 1013.3 |
| 20260906052432 | 27 | 185 | 8.0 | 11.3 | 0.00 | 0.00 | 0.00 | 50 | 1013.2 |
| 20260906051929 | 25 | 175 | 8.0 | 9.7 | 0.00 | 0.00 | 0.00 | 53 | 1013.1 |
| 20260906051424 | 25 | 161 | 0.0 | 0.0 | 0.00 | 0.00 | 0.00 | 54 | 1013.1 |
| 20260906050920 | 25 | 161 | 0.0 | 0.0 | 0.00 | 0.00 | 0.00 | 53 | 1013.0 |
| 20260906050419 | 25 | 159 | 0.0 | 0.0 | 0.00 | 0.00 | 0.00 | 53 | 1013.1 |
| 20260906045919 | 25 | 159 | 0.0 | 0.0 | 0.00 | 0.00 | 0.00 | 52 | 1013.1 |
| 20260906045417 | 26 | 159 | 0.0 | 0.0 | 0.00 | 0.00 | 0.00 | 52 | 1012.9 |
| 20260906044914 | 26 | 159 | 0.0 | 0.0 | 0.00 | 0.00 | 0.00 | 52 | 1013.0 |
| 20260906044413 | 26 | 159 | 0.0 | 0.0 | 0.00 | 0.00 | 0.00 | 51 | 1013.1 |
| 20260906043909 | 26 | 159 | 0.0 | 0.0 | 0.00 | 0.00 | 0.00 | 51 | 1013.1 |
| 20260906043405 | 26 | 159 | 0.0 | 0.0 | 0.00 | 0.00 | 0.00 | 49 | 1013.1 |
| 20260906042900 | 26 | 156 | 0.0 | 0.0 | 0.00 | 0.00 | 0.00 | 50 | 1013.1 |
| 20260906042358 | 27 | 154 | 0.0 | 0.0 | 0.00 | 0.00 | 0.00 | 49 | 1013.1 |
| 20260906041855 | 27 | 154 | 0.0 | 0.0 | 0.00 | 0.00 | 0.00 | 48 | 1013.2 |
| 20260906041350 | 27 | 154 | 0.0 | 0.0 | 0.00 | 0.00 | 0.00 | 47 | 1013.1 |
| 20260906040845 | 27 | 157 | 3.2 | 1.6 | 0.00 | 0.00 | 0.00 | 47 | 1013.0 |
| 20260906040341 | 27 | 152 | 1.6 | 1.6 | 0.00 | 0.00 | 0.00 | 48 | 1013.1 |
| 20260906035836 | 26 | 151 | 1.6 | 1.6 | 0.00 | 0.00 | 0.00 | 49 | 1013.0 |
| 20260906035331 | 26 | 150 | 0.0 | 0.0 | 0.00 | 0.00 | 0.00 | 49 | 1012.8 |
| 20260906034826 | 26 | 148 | 0.0 | 0.0 | 0.00 | 0.00 | 0.00 | 49 | 1012.9 |
| 20260906034321 | 26 | 137 | 0.0 | 0.0 | 0.00 | 0.00 | 0.00 | 50 | 1012.7 |
| 20260906033817 | 26 | 137 | 0.0 | 0.0 | 0.00 | 0.00 | 0.00 | 50 | 1012.8 |
| 20260906033316 | 25 | 138 | 0.0 | 0.0 | 0.00 | 0.00 | 0.00 | 50 | 1013.0 |
| 20260906032813 | 26 | 136 | 0.0 | 0.0 | 0.00 | 0.00 | 0.00 | 50 | 1012.8 |
| 20260906032308 | 26 | 136 | 0.0 | 0.0 | 0.00 | 0.00 | 0.00 | 49 | 1012.7 |
| 20260906031803 | 26 | 136 | 0.0 | 0.0 | 0.00 | 0.00 | 0.00 | 48 | 1012.6 |
| 20260906031259 | 26 | 136 | 0.0 | 0.0 | 0.00 | 0.00 | 0.00 | 47 | 1012.5 |
| 20260906030758 | 27 | 136 | 0.0 | 0.0 | 0.00 | 0.00 | 0.00 | 47 | 1012.5 |
| 20260906030254 | 27 | 136 | 0.0 | 0.0 | 0.00 | 0.00 | 0.00 | 46 | 1012.5 |
| 20260906025753 | 27 | 136 | 0.0 | 0.0 | 0.00 | 0.00 | 0.00 | 45 | 1012.4 |
| 20260906025248 | 28 | 136 | 0.0 | 0.0 | 0.00 | 0.00 | 0.00 | 43 | 1012.2 |
| 20260906024747 | 28 | 136 | 0.0 | 0.0 | 0.00 | 0.00 | 0.00 | 42 | 1012.2 |
| 20260906024246 | 28 | 136 | 0.0 | 0.0 | 0.00 | 0.00 | 0.00 | 42 | 1011.9 |
| 20260906023741 | 29 | 137 | 0.0 | 0.0 | 0.00 | 0.00 | 0.00 | 42 | 1011.8 |
| 20260906023236 | 29 | 136 | 0.0 | 0.0 | 0.00 | 0.00 | 0.00 | 41 | 1011.9 |
| 20260906022731 | 29 | 145 | 1.6 | 1.6 | 0.00 | 0.00 | 0.00 | 41 | 1011.9 |
| 20260906022221 | 29 | 140 | 0.0 | 0.0 | 0.00 | 0.00 | 0.00 | 41 | 1011.7 |
| 20260906021717 | 29 | 145 | 1.6 | 1.6 | 0.00 | 0.00 | 0.00 | 41 | 1011.8 |
| 20260906021216 | 29 | 104 | 0.0 | 0.0 | 0.00 | 0.00 | 0.00 | 41 | 1011.5 |
| 20260906020711 | 29 | 132 | 1.6 | 1.6 | 0.00 | 0.00 | 0.00 | 41 | 1011.4 |
| 20260906020205 | 30 | 123 | 0.0 | 0.0 | 0.00 | 0.00 | 0.00 | 41 | 1011.7 |
| 20260906015700 | 30 | 132 | 0.0 | 0.0 | 0.00 | 0.00 | 0.00 | 40 | 1011.3 |
| 20260906015158 | 30 | 127 | 0.0 | 0.0 | 0.00 | 0.00 | 0.00 | 40 | 1011.4 |
| 20260906014653 | 30 | 136 | 0.0 | 0.0 | 0.00 | 0.00 | 0.00 | 39 | 1011.1 |
| 20260906014149 | 31 | 140 | 3.2 | 4.8 | 0.00 | 0.00 | 0.00 | 39 | 1011.0 |
| 20260906013644 | 31 | 150 | 3.2 | 4.8 | 0.00 | 0.00 | 0.00 | 38 | 1011.1 |
| 20260906013139 | 31 | 146 | 3.2 | 4.8 | 0.00 | 0.00 | 0.00 | 38 | 1011.1 |
| 20260906012634 | 31 | 163 | 3.2 | 4.8 | 0.00 | 0.00 | 0.00 | 37 | 1011.0 |
| 20260906012129 | 31 | 127 | 1.6 | 1.6 | 0.00 | 0.00 | 0.00 | 37 | 1011.0 |
| 20260906011624 | 32 | 136 | 3.2 | 1.6 | 0.00 | 0.00 | 0.00 | 36 | 1010.9 |
| 20260906011118 | 32 | 167 | 6.4 | 9.7 | 0.00 | 0.00 | 0.00 | 36 | 1010.9 |
| 20260906010614 | 32 | 117 | 6.4 | 9.7 | 0.00 | 0.00 | 0.00 | 35 | 1010.7 |
| 20260906010110 | 32 | 168 | 3.2 | 4.8 | 0.00 | 0.00 | 0.00 | 35 | 1010.8 |
| 20260906005609 | 32 | 172 | 4.8 | 6.4 | 0.00 | 0.00 | 0.00 | 35 | 1010.6 |
| 20260906005108 | 33 | 159 | 3.2 | 6.4 | 0.00 | 0.00 | 0.00 | 35 | 1010.6 |
| 20260906004603 | 33 | 133 | 3.2 | 4.8 | 0.00 | 0.00 | 0.00 | 34 | 1010.7 |
| 20260906004057 | 33 | 140 | 6.4 | 9.7 | 0.00 | 0.00 | 0.00 | 33 | 1010.8 |
| 20260906003553 | 33 | 160 | 6.4 | 6.4 | 0.00 | 0.00 | 0.00 | 32 | 1010.5 |
| 20260906003048 | 34 | 101 | 11.3 | 12.9 | 0.00 | 0.00 | 0.00 | 32 | 1010.7 |
| 20260906002543 | 34 | 182 | 6.4 | 9.7 | 0.00 | 0.00 | 0.00 | 31 | 1010.4 |
| 20260906002043 | 34 | 146 | 11.3 | 12.9 | 0.00 | 0.00 | 0.00 | 31 | 1010.5 |
| 20260906001533 | 35 | 157 | 3.2 | 4.8 | 0.00 | 0.00 | 0.00 | 30 | 1010.4 |
| 20260906001027 | 35 | 161 | 6.4 | 9.7 | 0.00 | 0.00 | 0.00 | 30 | 1010.5 |
| 20260906000524 | 35 | 142 | 8.0 | 12.9 | 0.00 | 0.00 | 0.00 | 30 | 1010.6 |
| 20260906000024 | 35 | 172 | 8.0 | 11.3 | 0.00 | 0.00 | 0.00 | 29 | 1010.4 |
| 20260905235517 | 35 | 94 | 8.0 | 11.3 | 0.00 | 0.00 | 0.00 | 29 | 1010.5 |
| 20260905235013 | 35 | 171 | 6.4 | 6.4 | 0.00 | 0.00 | 0.00 | 29 | 1010.4 |
| 20260905234508 | 35 | 155 | 16.1 | 20.9 | 0.00 | 0.00 | 0.00 | 28 | 1010.3 |
| 20260905234003 | 35 | 93 | 4.8 | 6.4 | 0.00 | 0.00 | 0.00 | 28 | 1010.6 |
| 20260905233458 | 35 | 122 | 8.0 | 9.7 | 0.00 | 0.00 | 0.00 | 29 | 1010.2 |
| 20260905232956 | 35 | 138 | 4.8 | 6.4 | 0.00 | 0.00 | 0.00 | 29 | 1010.2 |
| 20260905232453 | 36 | 148 | 9.7 | 11.3 | 0.00 | 0.00 | 0.00 | 28 | 1010.1 |
| 20260905231949 | 35 | 60 | 9.7 | 11.3 | 0.00 | 0.00 | 0.00 | 28 | 1010.2 |
| 20260905231444 | 35 | 171 | 8.0 | 9.7 | 0.00 | 0.00 | 0.00 | 29 | 1010.2 |
| 20260905230941 | 35 | 89 | 6.4 | 9.7 | 0.00 | 0.00 | 0.00 | 30 | 1010.1 |
| 20260905230438 | 36 | 105 | 9.7 | 11.3 | 0.00 | 0.00 | 0.00 | 29 | 1010.0 |
| 20260905225937 | 35 | 173 | 3.2 | 6.4 | 0.00 | 0.00 | 0.00 | 30 | 1010.1 |